sensor_id;sensor_type;location;lat;lon;timestamp;temperature;humidity
2363;DHT22;1192;51.664;7.626;2022-07-01T03:21:09;23.40;99.90
2363;DHT22;1192;51.664;7.626;2022-07-01T03:23:35;22.00;99.90
2363;DHT22;1192;51.664;7.626;2022-07-01T03:26:02;22.00;99.90
2363;DHT22;1192;51.664;7.626;2022-07-01T03:28:29;21.90;99.90
2363;DHT22;1192;51.664;7.626;2022-07-01T03:30:57;21.90;99.90
2363;DHT22;1192;51.664;7.626;2022-07-01T03:33:23;21.90;99.90
2363;DHT22;1192;51.664;7.626;2022-07-01T03:35:50;21.90;99.90
2363;DHT22;1192;51.664;7.626;2022-07-01T03:38:18;21.80;99.90
2363;DHT22;1192;51.664;7.626;2022-07-01T03:40:45;21.80;99.90
2363;DHT22;1192;51.664;7.626;2022-07-01T03:43:11;21.80;99.90
2363;DHT22;1192;51.664;7.626;2022-07-01T03:45:38;21.80;99.90
2363;DHT22;1192;51.664;7.626;2022-07-01T03:48:06;21.80;99.90
2363;DHT22;1192;51.664;7.626;2022-07-01T03:50:32;21.70;99.90
2363;DHT22;1192;51.664;7.626;2022-07-01T03:52:59;21.70;99.90
2363;DHT22;1192;51.664;7.626;2022-07-01T03:55:44;21.70;99.90
2363;DHT22;1192;51.664;7.626;2022-07-01T03:58:11;21.70;99.90
2363;DHT22;1192;51.664;7.626;2022-07-01T04:00:38;21.70;99.90
2363;DHT22;1192;51.664;7.626;2022-07-01T04:03:05;21.60;99.90
2363;DHT22;1192;51.664;7.626;2022-07-01T04:05:34;21.60;99.90
2363;DHT22;1192;51.664;7.626;2022-07-01T04:08:01;21.60;99.90
2363;DHT22;1192;51.664;7.626;2022-07-01T04:10:29;21.60;99.90
2363;DHT22;1192;51.664;7.626;2022-07-01T04:12:58;21.60;99.90
2363;DHT22;1192;51.664;7.626;2022-07-01T04:15:25;21.60;99.90
2363;DHT22;1192;51.664;7.626;2022-07-01T04:17:52;21.50;99.90
2363;DHT22;1192;51.664;7.626;2022-07-01T04:20:19;21.50;99.90
2363;DHT22;1192;51.664;7.626;2022-07-01T04:22:45;21.50;99.90
2363;DHT22;1192;51.664;7.626;2022-07-01T04:25:12;21.50;99.90
2363;DHT22;1192;51.664;7.626;2022-07-01T04:27:38;21.50;99.90
2363;DHT22;1192;51.664;7.626;2022-07-01T04:30:08;21.40;99.90
2363;DHT22;1192;51.664;7.626;2022-07-01T04:32:34;21.40;99.90
2363;DHT22;1192;51.664;7.626;2022-07-01T04:35:01;21.40;99.90
2363;DHT22;1192;51.664;7.626;2022-07-01T04:37:28;21.40;99.90
2363;DHT22;1192;51.664;7.626;2022-07-01T04:39:55;21.40;99.90
2363;DHT22;1192;51.664;7.626;2022-07-01T04:42:22;21.30;99.90
2363;DHT22;1192;51.664;7.626;2022-07-01T04:44:47;21.30;99.90
2363;DHT22;1192;51.664;7.626;2022-07-01T04:47:15;21.30;99.90
2363;DHT22;1192;51.664;7.626;2022-07-01T04:49:42;21.30;99.90
2363;DHT22;1192;51.664;7.626;2022-07-01T04:52:09;21.20;99.90
2363;DHT22;1192;51.664;7.626;2022-07-01T04:54:36;21.00;99.90
2363;DHT22;1192;51.664;7.626;2022-07-01T04:57:03;20.80;99.90
2363;DHT22;1192;51.664;7.626;2022-07-01T04:59:30;20.60;99.90
2363;DHT22;1192;51.664;7.626;2022-07-01T05:01:57;20.50;99.90
2363;DHT22;1192;51.664;7.626;2022-07-01T05:04:25;20.50;99.90
2363;DHT22;1192;51.664;7.626;2022-07-01T05:06:53;20.40;99.90
2363;DHT22;1192;51.664;7.626;2022-07-01T05:09:20;20.40;99.90
2363;DHT22;1192;51.664;7.626;2022-07-01T05:11:47;20.30;99.90
2363;DHT22;1192;51.664;7.626;2022-07-01T05:14:13;20.30;99.90
2363;DHT22;1192;51.664;7.626;2022-07-01T05:16:40;20.30;99.90
2363;DHT22;1192;51.664;7.626;2022-07-01T05:19:07;20.30;99.90
2363;DHT22;1192;51.664;7.626;2022-07-01T05:21:52;20.20;99.90
2363;DHT22;1192;51.664;7.626;2022-07-01T05:24:28;20.20;99.90
2363;DHT22;1192;51.664;7.626;2022-07-01T05:26:56;20.20;99.90
2363;DHT22;1192;51.664;7.626;2022-07-01T05:29:22;20.20;99.90
2363;DHT22;1192;51.664;7.626;2022-07-01T05:31:49;20.20;99.90
2363;DHT22;1192;51.664;7.626;2022-07-01T05:34:16;20.20;99.90
2363;DHT22;1192;51.664;7.626;2022-07-01T05:36:43;20.20;99.90
2363;DHT22;1192;51.664;7.626;2022-07-01T05:39:11;20.20;99.90
2363;DHT22;1192;51.664;7.626;2022-07-01T05:41:38;20.20;99.90
2363;DHT22;1192;51.664;7.626;2022-07-01T05:44:05;20.10;99.90
2363;DHT22;1192;51.664;7.626;2022-07-01T05:46:32;20.10;99.90
2363;DHT22;1192;51.664;7.626;2022-07-01T05:48:59;20.10;99.90
2363;DHT22;1192;51.664;7.626;2022-07-01T05:51:26;20.10;99.90
2363;DHT22;1192;51.664;7.626;2022-07-01T05:53:53;20.10;99.90
2363;DHT22;1192;51.664;7.626;2022-07-01T05:56:25;20.10;99.90
2363;DHT22;1192;51.664;7.626;2022-07-01T05:58:52;20.10;99.90
2363;DHT22;1192;51.664;7.626;2022-07-01T06:01:19;20.10;99.90
2363;DHT22;1192;51.664;7.626;2022-07-01T06:03:46;20.10;99.90
2363;DHT22;1192;51.664;7.626;2022-07-01T06:06:13;20.10;99.90
2363;DHT22;1192;51.664;7.626;2022-07-01T06:08:39;20.10;99.90
2363;DHT22;1192;51.664;7.626;2022-07-01T06:11:06;20.10;99.90
2363;DHT22;1192;51.664;7.626;2022-07-01T06:13:35;20.10;99.90
2363;DHT22;1192;51.664;7.626;2022-07-01T06:16:02;20.10;99.90
2363;DHT22;1192;51.664;7.626;2022-07-01T06:18:29;20.10;99.90
2363;DHT22;1192;51.664;7.626;2022-07-01T06:20:56;20.10;99.90
2363;DHT22;1192;51.664;7.626;2022-07-01T06:23:22;20.10;99.90
2363;DHT22;1192;51.664;7.626;2022-07-01T06:25:49;20.00;99.90
2363;DHT22;1192;51.664;7.626;2022-07-01T06:28:16;20.00;99.90
2363;DHT22;1192;51.664;7.626;2022-07-01T06:30:44;20.10;99.90
2363;DHT22;1192;51.664;7.626;2022-07-01T06:33:12;20.00;99.90
2363;DHT22;1192;51.664;7.626;2022-07-01T06:35:39;20.10;99.90
2363;DHT22;1192;51.664;7.626;2022-07-01T06:38:06;20.00;99.90
2363;DHT22;1192;51.664;7.626;2022-07-01T06:40:33;20.00;99.90
2363;DHT22;1192;51.664;7.626;2022-07-01T06:43:00;20.00;99.90
2363;DHT22;1192;51.664;7.626;2022-07-01T06:45:26;20.00;99.90
2363;DHT22;1192;51.664;7.626;2022-07-01T06:47:54;20.00;99.90
2363;DHT22;1192;51.664;7.626;2022-07-01T06:50:21;20.00;99.90
2363;DHT22;1192;51.664;7.626;2022-07-01T06:52:48;20.00;99.90
2363;DHT22;1192;51.664;7.626;2022-07-01T06:55:15;20.00;99.90
2363;DHT22;1192;51.664;7.626;2022-07-01T06:57:41;20.00;99.90
2363;DHT22;1192;51.664;7.626;2022-07-01T07:00:09;20.00;99.90
2363;DHT22;1192;51.664;7.626;2022-07-01T07:02:37;20.00;99.90
2363;DHT22;1192;51.664;7.626;2022-07-01T07:05:07;20.00;99.90
2363;DHT22;1192;51.664;7.626;2022-07-01T07:07:34;19.90;99.90
2363;DHT22;1192;51.664;7.626;2022-07-01T07:10:01;19.90;99.90
2363;DHT22;1192;51.664;7.626;2022-07-01T07:12:28;19.90;99.90
2363;DHT22;1192;51.664;7.626;2022-07-01T07:14:54;19.90;99.90
2363;DHT22;1192;51.664;7.626;2022-07-01T07:17:21;19.90;99.90
2363;DHT22;1192;51.664;7.626;2022-07-01T07:19:48;19.90;99.90
2363;DHT22;1192;51.664;7.626;2022-07-01T07:22:16;19.90;99.90
2363;DHT22;1192;51.664;7.626;2022-07-01T07:24:42;20.00;99.90
2363;DHT22;1192;51.664;7.626;2022-07-01T07:27:09;20.00;99.90
2363;DHT22;1192;51.664;7.626;2022-07-01T07:29:36;20.00;99.90
2363;DHT22;1192;51.664;7.626;2022-07-01T07:32:03;20.10;99.90
2363;DHT22;1192;51.664;7.626;2022-07-01T07:34:30;20.10;99.90
2363;DHT22;1192;51.664;7.626;2022-07-01T07:36:57;20.10;99.90
2363;DHT22;1192;51.664;7.626;2022-07-01T07:39:25;20.20;99.90
2363;DHT22;1192;51.664;7.626;2022-07-01T07:41:51;20.20;99.90
2363;DHT22;1192;51.664;7.626;2022-07-01T07:44:18;20.20;99.90
2363;DHT22;1192;51.664;7.626;2022-07-01T07:46:45;20.20;99.90
2363;DHT22;1192;51.664;7.626;2022-07-01T07:49:11;20.20;99.90
2363;DHT22;1192;51.664;7.626;2022-07-01T07:51:38;20.30;99.90
2363;DHT22;1192;51.664;7.626;2022-07-01T07:54:05;20.30;99.90
2363;DHT22;1192;51.664;7.626;2022-07-01T07:56:33;20.50;99.90
2363;DHT22;1192;51.664;7.626;2022-07-01T07:58:59;20.60;99.90
2363;DHT22;1192;51.664;7.626;2022-07-01T08:01:26;20.60;99.90
2363;DHT22;1192;51.664;7.626;2022-07-01T08:03:53;20.70;99.90
2363;DHT22;1192;51.664;7.626;2022-07-01T08:06:20;20.70;99.90
2363;DHT22;1192;51.664;7.626;2022-07-01T08:08:47;20.60;99.90
2363;DHT22;1192;51.664;7.626;2022-07-01T08:11:13;20.60;99.90
2363;DHT22;1192;51.664;7.626;2022-07-01T08:13:41;20.50;99.90
2363;DHT22;1192;51.664;7.626;2022-07-01T08:16:09;20.50;99.90
2363;DHT22;1192;51.664;7.626;2022-07-01T08:18:36;20.40;99.90
2363;DHT22;1192;51.664;7.626;2022-07-01T08:21:02;20.40;99.90
2363;DHT22;1192;51.664;7.626;2022-07-01T08:23:29;20.40;99.90
2363;DHT22;1192;51.664;7.626;2022-07-01T08:25:56;20.30;99.90
2363;DHT22;1192;51.664;7.626;2022-07-01T08:28:23;20.40;99.90
2363;DHT22;1192;51.664;7.626;2022-07-01T08:30:51;20.40;99.90
2363;DHT22;1192;51.664;7.626;2022-07-01T08:33:18;20.40;99.90
2363;DHT22;1192;51.664;7.626;2022-07-01T08:35:45;20.50;99.90
2363;DHT22;1192;51.664;7.626;2022-07-01T08:38:11;20.50;99.90
2363;DHT22;1192;51.664;7.626;2022-07-01T08:40:38;20.50;99.90
2363;DHT22;1192;51.664;7.626;2022-07-01T08:43:06;20.50;99.90
2363;DHT22;1192;51.664;7.626;2022-07-01T08:45:34;20.60;99.90
2363;DHT22;1192;51.664;7.626;2022-07-01T08:48:03;20.70;99.90
2363;DHT22;1192;51.664;7.626;2022-07-01T08:50:33;20.80;99.90
2363;DHT22;1192;51.664;7.626;2022-07-01T08:53:00;20.80;99.90
2363;DHT22;1192;51.664;7.626;2022-07-01T08:55:27;20.80;99.90
2363;DHT22;1192;51.664;7.626;2022-07-01T08:57:54;20.70;99.90
2363;DHT22;1192;51.664;7.626;2022-07-01T09:00:21;20.70;99.90
2363;DHT22;1192;51.664;7.626;2022-07-01T09:02:55;20.70;99.90
2363;DHT22;1192;51.664;7.626;2022-07-01T09:05:25;20.60;99.90
2363;DHT22;1192;51.664;7.626;2022-07-01T09:07:58;20.60;99.90
2363;DHT22;1192;51.664;7.626;2022-07-01T09:10:25;20.60;99.90
2363;DHT22;1192;51.664;7.626;2022-07-01T09:12:52;20.50;99.90
2363;DHT22;1192;51.664;7.626;2022-07-01T09:15:21;20.50;99.90
2363;DHT22;1192;51.664;7.626;2022-07-01T09:17:50;20.50;99.90
2363;DHT22;1192;51.664;7.626;2022-07-01T09:20:29;20.50;99.90
2363;DHT22;1192;51.664;7.626;2022-07-01T09:23:04;20.50;99.90
2363;DHT22;1192;51.664;7.626;2022-07-01T09:25:33;20.50;99.90
2363;DHT22;1192;51.664;7.626;2022-07-01T09:28:08;20.50;99.90
2363;DHT22;1192;51.664;7.626;2022-07-01T09:30:36;20.50;99.90
2363;DHT22;1192;51.664;7.626;2022-07-01T09:33:07;20.50;99.90
2363;DHT22;1192;51.664;7.626;2022-07-01T09:35:36;20.50;99.90
2363;DHT22;1192;51.664;7.626;2022-07-01T09:38:03;20.60;99.90
2363;DHT22;1192;51.664;7.626;2022-07-01T09:40:49;20.60;99.90
2363;DHT22;1192;51.664;7.626;2022-07-01T09:43:20;20.60;99.90
2363;DHT22;1192;51.664;7.626;2022-07-01T09:45:56;20.50;99.90
2363;DHT22;1192;51.664;7.626;2022-07-01T09:48:26;20.60;99.90
2363;DHT22;1192;51.664;7.626;2022-07-01T09:50:55;20.60;99.90
2363;DHT22;1192;51.664;7.626;2022-07-01T09:53:21;20.60;99.90
2363;DHT22;1192;51.664;7.626;2022-07-01T09:55:48;20.60;99.90
2363;DHT22;1192;51.664;7.626;2022-07-01T09:58:15;20.60;99.90
2363;DHT22;1192;51.664;7.626;2022-07-01T10:00:43;20.60;99.90
2363;DHT22;1192;51.664;7.626;2022-07-01T10:03:10;20.70;99.90
2363;DHT22;1192;51.664;7.626;2022-07-01T10:05:47;20.70;99.90
2363;DHT22;1192;51.664;7.626;2022-07-01T10:08:31;20.80;99.90
2363;DHT22;1192;51.664;7.626;2022-07-01T10:11:21;20.80;99.90
2363;DHT22;1192;51.664;7.626;2022-07-01T10:13:51;20.80;99.90
2363;DHT22;1192;51.664;7.626;2022-07-01T10:16:19;20.90;99.90
2363;DHT22;1192;51.664;7.626;2022-07-01T10:18:46;20.90;99.90
2363;DHT22;1192;51.664;7.626;2022-07-01T10:21:26;21.00;99.90
2363;DHT22;1192;51.664;7.626;2022-07-01T10:24:11;21.00;99.90
2363;DHT22;1192;51.664;7.626;2022-07-01T10:26:38;21.10;99.90
2363;DHT22;1192;51.664;7.626;2022-07-01T10:29:05;21.10;99.90
2363;DHT22;1192;51.664;7.626;2022-07-01T10:31:35;21.10;99.90
2363;DHT22;1192;51.664;7.626;2022-07-01T10:34:02;21.10;99.90
2363;DHT22;1192;51.664;7.626;2022-07-01T10:36:32;21.10;99.90
2363;DHT22;1192;51.664;7.626;2022-07-01T10:39:14;21.10;99.90
2363;DHT22;1192;51.664;7.626;2022-07-01T10:41:56;21.10;99.90
2363;DHT22;1192;51.664;7.626;2022-07-01T10:44:26;21.00;99.90
2363;DHT22;1192;51.664;7.626;2022-07-01T10:46:55;21.00;99.90
2363;DHT22;1192;51.664;7.626;2022-07-01T10:49:51;20.90;99.90
2363;DHT22;1192;51.664;7.626;2022-07-01T10:52:18;20.90;99.90
2363;DHT22;1192;51.664;7.626;2022-07-01T10:54:48;20.80;99.90
2363;DHT22;1192;51.664;7.626;2022-07-01T10:57:20;20.80;99.90
2363;DHT22;1192;51.664;7.626;2022-07-01T10:59:49;20.80;99.90
2363;DHT22;1192;51.664;7.626;2022-07-01T11:02:19;20.80;99.90
2363;DHT22;1192;51.664;7.626;2022-07-01T11:04:46;20.80;99.90
2363;DHT22;1192;51.664;7.626;2022-07-01T11:07:12;20.90;99.90
2363;DHT22;1192;51.664;7.626;2022-07-01T11:09:39;20.90;99.90
2363;DHT22;1192;51.664;7.626;2022-07-01T11:12:09;20.90;99.90
2363;DHT22;1192;51.664;7.626;2022-07-01T11:14:36;21.00;99.90
2363;DHT22;1192;51.664;7.626;2022-07-01T11:17:04;21.10;99.90
2363;DHT22;1192;51.664;7.626;2022-07-01T11:19:34;21.10;99.90
2363;DHT22;1192;51.664;7.626;2022-07-01T11:22:01;21.20;99.90
2363;DHT22;1192;51.664;7.626;2022-07-01T11:24:28;21.20;99.90
2363;DHT22;1192;51.664;7.626;2022-07-01T11:27:00;21.20;99.90
2363;DHT22;1192;51.664;7.626;2022-07-01T11:29:28;21.20;99.90
2363;DHT22;1192;51.664;7.626;2022-07-01T11:31:55;21.20;99.90
2363;DHT22;1192;51.664;7.626;2022-07-01T11:34:22;21.20;99.90
2363;DHT22;1192;51.664;7.626;2022-07-01T11:36:49;21.20;99.90
2363;DHT22;1192;51.664;7.626;2022-07-01T11:39:38;21.20;99.90
2363;DHT22;1192;51.664;7.626;2022-07-01T11:42:08;21.20;99.90
2363;DHT22;1192;51.664;7.626;2022-07-01T11:44:40;21.20;99.90
2363;DHT22;1192;51.664;7.626;2022-07-01T11:47:08;21.30;99.90
2363;DHT22;1192;51.664;7.626;2022-07-01T11:49:43;21.30;99.90
2363;DHT22;1192;51.664;7.626;2022-07-01T11:52:10;21.30;99.90
2363;DHT22;1192;51.664;7.626;2022-07-01T11:54:38;21.30;99.90
2363;DHT22;1192;51.664;7.626;2022-07-01T11:57:10;21.30;99.90
2363;DHT22;1192;51.664;7.626;2022-07-01T11:59:39;21.40;99.90
2363;DHT22;1192;51.664;7.626;2022-07-01T12:02:06;21.40;99.90
2363;DHT22;1192;51.664;7.626;2022-07-01T12:04:34;21.40;99.90
2363;DHT22;1192;51.664;7.626;2022-07-01T12:07:01;21.40;99.90
2363;DHT22;1192;51.664;7.626;2022-07-01T12:09:28;21.40;99.90
2363;DHT22;1192;51.664;7.626;2022-07-01T12:11:54;21.40;99.90
2363;DHT22;1192;51.664;7.626;2022-07-01T12:14:22;21.50;99.90
2363;DHT22;1192;51.664;7.626;2022-07-01T12:16:53;21.50;99.90
2363;DHT22;1192;51.664;7.626;2022-07-01T12:19:20;21.50;99.90
2363;DHT22;1192;51.664;7.626;2022-07-01T12:21:54;21.60;99.90
2363;DHT22;1192;51.664;7.626;2022-07-01T12:24:24;21.60;99.90
2363;DHT22;1192;51.664;7.626;2022-07-01T12:26:58;21.60;99.90
2363;DHT22;1192;51.664;7.626;2022-07-01T12:29:29;21.60;99.90
2363;DHT22;1192;51.664;7.626;2022-07-01T12:31:59;21.60;99.90
2363;DHT22;1192;51.664;7.626;2022-07-01T12:34:40;21.60;99.90
2363;DHT22;1192;51.664;7.626;2022-07-01T12:37:12;21.70;99.90
2363;DHT22;1192;51.664;7.626;2022-07-01T12:39:44;21.70;99.90
2363;DHT22;1192;51.664;7.626;2022-07-01T12:42:20;21.70;99.90
2363;DHT22;1192;51.664;7.626;2022-07-01T12:44:47;21.70;99.90
2363;DHT22;1192;51.664;7.626;2022-07-01T12:47:19;21.70;99.90
2363;DHT22;1192;51.664;7.626;2022-07-01T12:49:46;21.70;99.90
2363;DHT22;1192;51.664;7.626;2022-07-01T12:52:26;21.60;99.90
2363;DHT22;1192;51.664;7.626;2022-07-01T12:54:56;21.60;99.90
2363;DHT22;1192;51.664;7.626;2022-07-01T12:57:30;21.60;99.90
2363;DHT22;1192;51.664;7.626;2022-07-01T12:59:57;21.60;99.90
2363;DHT22;1192;51.664;7.626;2022-07-01T13:02:25;21.60;99.90
2363;DHT22;1192;51.664;7.626;2022-07-01T13:04:51;21.60;99.90
2363;DHT22;1192;51.664;7.626;2022-07-01T13:07:18;21.60;99.90
2363;DHT22;1192;51.664;7.626;2022-07-01T13:09:45;21.60;99.90
2363;DHT22;1192;51.664;7.626;2022-07-01T13:12:12;21.60;99.90
2363;DHT22;1192;51.664;7.626;2022-07-01T13:14:39;21.60;99.90
2363;DHT22;1192;51.664;7.626;2022-07-01T13:17:06;21.60;99.90
2363;DHT22;1192;51.664;7.626;2022-07-01T13:19:34;21.60;99.90
2363;DHT22;1192;51.664;7.626;2022-07-01T13:22:05;21.60;99.90
2363;DHT22;1192;51.664;7.626;2022-07-01T13:24:32;21.60;99.90
2363;DHT22;1192;51.664;7.626;2022-07-01T13:26:58;21.60;99.90
2363;DHT22;1192;51.664;7.626;2022-07-01T13:29:25;21.60;99.90
2363;DHT22;1192;51.664;7.626;2022-07-01T13:31:52;21.60;99.90
2363;DHT22;1192;51.664;7.626;2022-07-01T13:34:19;21.60;99.90
2363;DHT22;1192;51.664;7.626;2022-07-01T13:36:47;21.60;99.90
2363;DHT22;1192;51.664;7.626;2022-07-01T13:39:14;21.60;99.90
2363;DHT22;1192;51.664;7.626;2022-07-01T13:41:40;21.60;99.90
2363;DHT22;1192;51.664;7.626;2022-07-01T13:44:07;21.60;99.90
2363;DHT22;1192;51.664;7.626;2022-07-01T13:46:34;21.60;99.90
2363;DHT22;1192;51.664;7.626;2022-07-01T13:49:01;21.60;99.90
2363;DHT22;1192;51.664;7.626;2022-07-01T13:51:28;21.60;99.90
2363;DHT22;1192;51.664;7.626;2022-07-01T13:53:56;21.60;99.90
2363;DHT22;1192;51.664;7.626;2022-07-01T13:56:24;21.70;99.90
2363;DHT22;1192;51.664;7.626;2022-07-01T13:58:51;21.70;99.90
2363;DHT22;1192;51.664;7.626;2022-07-01T14:01:19;21.70;99.90
2363;DHT22;1192;51.664;7.626;2022-07-01T14:03:48;21.70;99.90
2363;DHT22;1192;51.664;7.626;2022-07-01T14:06:15;21.70;99.90
2363;DHT22;1192;51.664;7.626;2022-07-01T14:08:41;21.70;99.90
2363;DHT22;1192;51.664;7.626;2022-07-01T14:11:09;21.70;99.90
2363;DHT22;1192;51.664;7.626;2022-07-01T14:13:37;21.80;99.90
2363;DHT22;1192;51.664;7.626;2022-07-01T14:16:04;21.80;99.90
2363;DHT22;1192;51.664;7.626;2022-07-01T14:18:32;21.80;99.90
2363;DHT22;1192;51.664;7.626;2022-07-01T14:20:58;21.80;99.90
2363;DHT22;1192;51.664;7.626;2022-07-01T14:23:25;21.80;99.90
2363;DHT22;1192;51.664;7.626;2022-07-01T14:25:52;21.90;99.90
2363;DHT22;1192;51.664;7.626;2022-07-01T14:28:20;21.90;99.90
2363;DHT22;1192;51.664;7.626;2022-07-01T14:30:47;21.90;99.90
2363;DHT22;1192;51.664;7.626;2022-07-01T14:33:15;21.90;99.90
2363;DHT22;1192;51.664;7.626;2022-07-01T14:35:42;21.90;99.90
2363;DHT22;1192;51.664;7.626;2022-07-01T14:38:08;21.90;99.90
2363;DHT22;1192;51.664;7.626;2022-07-01T14:40:36;21.90;99.90
2363;DHT22;1192;51.664;7.626;2022-07-01T14:43:03;21.90;99.90
2363;DHT22;1192;51.664;7.626;2022-07-01T14:45:31;21.90;99.90
2363;DHT22;1192;51.664;7.626;2022-07-01T14:47:58;21.90;99.90
2363;DHT22;1192;51.664;7.626;2022-07-01T14:50:24;21.80;99.90
2363;DHT22;1192;51.664;7.626;2022-07-01T14:52:51;21.80;99.90
2363;DHT22;1192;51.664;7.626;2022-07-01T14:55:18;21.80;99.90
2363;DHT22;1192;51.664;7.626;2022-07-01T14:57:45;21.90;99.90
2363;DHT22;1192;51.664;7.626;2022-07-01T15:00:12;21.90;99.90
2363;DHT22;1192;51.664;7.626;2022-07-01T15:02:41;21.90;99.90
2363;DHT22;1192;51.664;7.626;2022-07-01T15:05:08;21.90;99.90
2363;DHT22;1192;51.664;7.626;2022-07-01T15:07:35;21.90;99.90
2363;DHT22;1192;51.664;7.626;2022-07-01T15:10:03;21.90;99.90
2363;DHT22;1192;51.664;7.626;2022-07-01T15:12:29;21.90;99.90
2363;DHT22;1192;51.664;7.626;2022-07-01T15:14:56;22.00;99.90
2363;DHT22;1192;51.664;7.626;2022-07-01T15:17:23;21.90;99.90
2363;DHT22;1192;51.664;7.626;2022-07-01T15:19:51;21.90;99.90
2363;DHT22;1192;51.664;7.626;2022-07-01T15:22:21;21.90;99.90
2363;DHT22;1192;51.664;7.626;2022-07-01T15:24:48;21.90;99.90
2363;DHT22;1192;51.664;7.626;2022-07-01T15:27:14;22.00;99.90
2363;DHT22;1192;51.664;7.626;2022-07-01T15:29:41;22.00;99.90
2363;DHT22;1192;51.664;7.626;2022-07-01T15:32:08;22.00;99.90
2363;DHT22;1192;51.664;7.626;2022-07-01T15:34:35;22.00;99.90
2363;DHT22;1192;51.664;7.626;2022-07-01T15:37:03;22.00;99.90
2363;DHT22;1192;51.664;7.626;2022-07-01T15:39:30;22.00;99.90
2363;DHT22;1192;51.664;7.626;2022-07-01T15:41:59;22.00;99.90
2363;DHT22;1192;51.664;7.626;2022-07-01T15:44:28;22.00;99.90
2363;DHT22;1192;51.664;7.626;2022-07-01T15:46:55;22.00;99.90
2363;DHT22;1192;51.664;7.626;2022-07-01T15:49:21;22.00;99.90
2363;DHT22;1192;51.664;7.626;2022-07-01T15:51:48;21.90;99.90
2363;DHT22;1192;51.664;7.626;2022-07-01T15:54:16;21.90;99.90
2363;DHT22;1192;51.664;7.626;2022-07-01T15:56:43;21.90;99.90
2363;DHT22;1192;51.664;7.626;2022-07-01T15:59:10;21.90;99.90
2363;DHT22;1192;51.664;7.626;2022-07-01T16:01:37;21.90;99.90
2363;DHT22;1192;51.664;7.626;2022-07-01T16:04:04;21.90;99.90
2363;DHT22;1192;51.664;7.626;2022-07-01T16:06:31;21.80;99.90
2363;DHT22;1192;51.664;7.626;2022-07-01T16:09:01;21.80;99.90
2363;DHT22;1192;51.664;7.626;2022-07-01T16:11:30;21.80;99.90
2363;DHT22;1192;51.664;7.626;2022-07-01T16:13:58;21.80;99.90
2363;DHT22;1192;51.664;7.626;2022-07-01T16:16:26;21.80;99.90
2363;DHT22;1192;51.664;7.626;2022-07-01T16:18:53;21.80;99.90
2363;DHT22;1192;51.664;7.626;2022-07-01T16:21:20;21.80;99.90
2363;DHT22;1192;51.664;7.626;2022-07-01T16:23:50;21.80;99.90
2363;DHT22;1192;51.664;7.626;2022-07-01T16:26:20;21.80;99.90
2363;DHT22;1192;51.664;7.626;2022-07-01T16:28:50;21.80;99.90
2363;DHT22;1192;51.664;7.626;2022-07-01T16:31:17;21.80;99.90
2363;DHT22;1192;51.664;7.626;2022-07-01T16:33:45;21.80;99.90
2363;DHT22;1192;51.664;7.626;2022-07-01T16:36:16;21.80;99.90
2363;DHT22;1192;51.664;7.626;2022-07-01T16:38:49;21.90;99.90
2363;DHT22;1192;51.664;7.626;2022-07-01T16:41:26;21.90;99.90
2363;DHT22;1192;51.664;7.626;2022-07-01T16:43:56;21.90;99.90
2363;DHT22;1192;51.664;7.626;2022-07-01T16:46:29;21.90;99.90
2363;DHT22;1192;51.664;7.626;2022-07-01T16:48:57;21.90;99.90
2363;DHT22;1192;51.664;7.626;2022-07-01T16:51:29;21.90;99.90
2363;DHT22;1192;51.664;7.626;2022-07-01T16:53:56;21.90;99.90
2363;DHT22;1192;51.664;7.626;2022-07-01T16:56:26;21.90;99.90
2363;DHT22;1192;51.664;7.626;2022-07-01T16:59:01;21.90;99.90
2363;DHT22;1192;51.664;7.626;2022-07-01T17:01:29;21.90;99.90
2363;DHT22;1192;51.664;7.626;2022-07-01T17:03:57;21.90;99.90
2363;DHT22;1192;51.664;7.626;2022-07-01T17:06:24;22.00;99.90
2363;DHT22;1192;51.664;7.626;2022-07-01T17:08:51;22.00;99.90
2363;DHT22;1192;51.664;7.626;2022-07-01T17:11:19;22.00;99.90
2363;DHT22;1192;51.664;7.626;2022-07-01T17:13:47;22.00;99.90
2363;DHT22;1192;51.664;7.626;2022-07-01T17:16:15;22.00;99.90
2363;DHT22;1192;51.664;7.626;2022-07-01T17:18:44;22.00;99.90
2363;DHT22;1192;51.664;7.626;2022-07-01T17:21:14;22.10;99.90
2363;DHT22;1192;51.664;7.626;2022-07-01T17:23:45;22.10;99.90
2363;DHT22;1192;51.664;7.626;2022-07-01T17:26:13;22.10;99.90
2363;DHT22;1192;51.664;7.626;2022-07-01T17:28:43;22.10;99.90
2363;DHT22;1192;51.664;7.626;2022-07-01T17:31:18;22.10;99.90
2363;DHT22;1192;51.664;7.626;2022-07-01T17:33:46;22.10;99.90
2363;DHT22;1192;51.664;7.626;2022-07-01T17:36:14;22.10;99.90
2363;DHT22;1192;51.664;7.626;2022-07-01T17:38:46;22.00;99.90
2363;DHT22;1192;51.664;7.626;2022-07-01T17:41:16;22.00;99.90
2363;DHT22;1192;51.664;7.626;2022-07-01T17:43:44;22.10;99.90
2363;DHT22;1192;51.664;7.626;2022-07-01T17:46:12;22.10;99.90
2363;DHT22;1192;51.664;7.626;2022-07-01T17:48:44;22.10;99.90
2363;DHT22;1192;51.664;7.626;2022-07-01T17:51:12;22.10;99.90
2363;DHT22;1192;51.664;7.626;2022-07-01T17:53:39;22.10;99.90
2363;DHT22;1192;51.664;7.626;2022-07-01T17:56:06;22.10;99.90
2363;DHT22;1192;51.664;7.626;2022-07-01T17:58:34;22.10;99.90
2363;DHT22;1192;51.664;7.626;2022-07-01T18:01:03;22.10;99.90
2363;DHT22;1192;51.664;7.626;2022-07-01T18:03:32;22.10;99.90
2363;DHT22;1192;51.664;7.626;2022-07-01T18:06:00;22.10;99.90
2363;DHT22;1192;51.664;7.626;2022-07-01T18:08:27;22.10;99.90
2363;DHT22;1192;51.664;7.626;2022-07-01T18:10:59;22.10;99.90
2363;DHT22;1192;51.664;7.626;2022-07-01T18:13:39;22.10;99.90
2363;DHT22;1192;51.664;7.626;2022-07-01T18:16:11;22.10;99.90
2363;DHT22;1192;51.664;7.626;2022-07-01T18:18:45;22.10;99.90
2363;DHT22;1192;51.664;7.626;2022-07-01T18:21:17;22.10;99.90
2363;DHT22;1192;51.664;7.626;2022-07-01T18:23:48;22.10;99.90
2363;DHT22;1192;51.664;7.626;2022-07-01T18:26:17;22.10;99.90
2363;DHT22;1192;51.664;7.626;2022-07-01T18:28:45;22.10;99.90
2363;DHT22;1192;51.664;7.626;2022-07-01T18:31:13;22.10;99.90
2363;DHT22;1192;51.664;7.626;2022-07-01T18:33:45;22.20;99.90
2363;DHT22;1192;51.664;7.626;2022-07-01T18:36:18;22.20;99.90
2363;DHT22;1192;51.664;7.626;2022-07-01T18:38:50;22.20;99.90
2363;DHT22;1192;51.664;7.626;2022-07-01T18:41:16;22.20;99.90
2363;DHT22;1192;51.664;7.626;2022-07-01T18:43:43;22.20;99.90
2363;DHT22;1192;51.664;7.626;2022-07-01T18:46:11;22.20;99.90
2363;DHT22;1192;51.664;7.626;2022-07-01T18:48:37;22.20;99.90
2363;DHT22;1192;51.664;7.626;2022-07-01T18:51:04;22.10;99.90
2363;DHT22;1192;51.664;7.626;2022-07-01T18:53:32;22.10;99.90
2363;DHT22;1192;51.664;7.626;2022-07-01T18:55:59;22.10;99.90
2363;DHT22;1192;51.664;7.626;2022-07-01T18:58:26;22.10;99.90
2363;DHT22;1192;51.664;7.626;2022-07-01T19:00:53;22.10;99.90
2363;DHT22;1192;51.664;7.626;2022-07-01T19:03:20;22.10;99.90
2363;DHT22;1192;51.664;7.626;2022-07-01T19:05:46;22.10;99.90
2363;DHT22;1192;51.664;7.626;2022-07-01T19:08:13;22.10;99.90
2363;DHT22;1192;51.664;7.626;2022-07-01T19:10:41;22.10;99.90
2363;DHT22;1192;51.664;7.626;2022-07-01T19:13:08;22.10;99.90
2363;DHT22;1192;51.664;7.626;2022-07-01T19:15:38;22.10;99.90
2363;DHT22;1192;51.664;7.626;2022-07-01T19:18:05;22.10;99.90
2363;DHT22;1192;51.664;7.626;2022-07-01T19:20:32;22.00;99.90
2363;DHT22;1192;51.664;7.626;2022-07-01T19:22:59;22.00;99.90
2363;DHT22;1192;51.664;7.626;2022-07-01T19:25:26;22.00;99.90
2363;DHT22;1192;51.664;7.626;2022-07-01T19:27:54;21.90;99.90
2363;DHT22;1192;51.664;7.626;2022-07-01T19:30:22;21.90;99.90